首页
METAR-TAF:

METAR-TAF

机场 :

Vernal Regional Airport

Vernal, 犹他州, 美国

纬度: 40-26-39N, 经度: 109-30-42W, 海拔: 1607米

当前天气观测

该预报发布于28分钟前的09:53 UTC
风速9节,风向,有时为19节阵风
温度 -9°C
湿度 44%
气压 1021 hPa
能見度: 16.1公里
阴天层高于10000英尺

METAR: KVEL 260953Z AUTO 08009G19KT 10SM OVC100 M09/M19 A3016 RMK AO2 SLP268 T10941189 $

时间: 04:21 (10:21 UTC)

预报

该预报发布于4小时和45分钟前的05:36 UTC
预报有效从26日的 06点(UTC)到 27日的 06点(UTC)
风速20节,风向东转东北,有时为30节阵风
能見度: 10公里
少量云层高于8000英尺
从 26日的 0800点(UTC)
风速11节,风向北转东北,有时为21节阵风
能見度: 10公里
少量云层高于12000英尺
散云层高于15000英尺
从 26日的 1000点(UTC)
风速9节,风向北转东北
能見度: 10公里
散云层高于12000英尺
从 26日的 1500点(UTC)
风速6节,风向北转东北
能見度: 10公里
少量云层高于12000英尺
散云层高于25000英尺
从 26日的 1900点(UTC)
风速14节,风向,有时为21节阵风
能見度: 10公里
天空无云

TAF: KVEL 260536Z 2606/2706 06020G30KT P6SM FEW080 FM260800 03011G21KT P6SM FEW120 SCT150 FM261000 03009KT P6SM SCT120 FM261500 02006KT P6SM FEW120 SCT250 FM261900 10014G21KT P6SM SKC

超过4000个机场的气象观测和天气预报(METAR&TAF报告)。

可查询的气象台以黄色和红色小点在地图上表示。

将鼠标移到小点上方,可查看气象台名称。

然后点击查看天气观测和预报。

如需切换地图:点击带黑十字的绿色按钮放大地图;点击带横线的绿色按钮缩小地图;或者点击绿色箭头查看邻近地区的地图。


METAR-TAF: